Ida Theresa — V7RQ9 — position and weather

sailwx.info

Track history (hours):
 
Tides and Currents Weather Stations Pressure Air Temp Water Temp Dewpoint Dewpoint Depression Visibility Wind Speed Wind Dir Waves Ship Positions

Ida Theresa

Last reported at 2016-Jun-28 10:33 UTC. Time now 2016-Jun-29 00:20 UTC.
Position N 29°48' W 090°00'.

Length 121 m; draft 8.9 m.

Type: Ship. MMSI: 538090386.

Date/timePositionNaut miles runAvg speedWind from/ knotsBaromVisibWave heightAir tempDewpointWater temp
2016-Jun-28 10:33N 29°48' W 090°00'8 8.0
2016-Jun-28 09:33N 29°55' W 089°57'10 9.7
2016-Jun-28 08:33N 29°56' W 090°08'  
2016-Jun-25 20:07N 29°58' W 090°18'2 2.6
2016-Jun-25 19:29N 29°58' W 090°16'0 0.0
2016-Jun-25 18:29N 29°58' W 090°16'0 0.0
2016-Jun-25 17:29N 29°58' W 090°16'0 0.0
2016-Jun-25 16:29N 29°58' W 090°16'0 0.0
2016-Jun-25 15:29N 29°58' W 090°16'0 0.0
2016-Jun-25 14:29N 29°58' W 090°16'0 0.0
2016-Jun-25 13:29N 29°58' W 090°16'0 0.0
2016-Jun-25 12:29N 29°58' W 090°16'0 0.0
2016-Jun-25 11:11N 29°58' W 090°16'0 0.0
2016-Jun-25 01:11N 29°58' W 090°16'0 0.0
2016-Jun-25 00:23N 29°58' W 090°16'0 0.0
2016-Jun-24 23:29N 29°58' W 090°16'0 0.0
2016-Jun-24 18:23N 29°58' W 090°16'0 0.0
2016-Jun-24 17:29N 29°58' W 090°16'0 0.0
2016-Jun-24 16:23N 29°58' W 090°16'0 0.0
2016-Jun-24 14:23N 29°58' W 090°16'0 0.0
2016-Jun-24 12:29N 29°58' W 090°16'0 0.1
2016-Jun-24 11:21N 29°58' W 090°16'1 0.6
2016-Jun-24 10:26N 29°58' W 090°15'6 7.2
2016-Jun-24 09:34N 29°57' W 090°08'7 6.7
2016-Jun-24 08:33N 29°57' W 090°01'5 5.5
2016-Jun-24 07:33N 29°52' W 089°57'9 8.9
2016-Jun-24 06:33N 29°44' W 089°60'  
Track history (hours):
 
Tides and Currents Weather Stations Pressure Air Temp Water Temp Dewpoint Dewpoint Depression Visibility Wind Speed Wind Dir Waves Ship Positions

Ida Theresa

Last reported at 2016-Jun-28 10:33 UTC. Time now 2016-Jun-29 00:20 UTC.
Position N 29°48' W 090°00'.

Length 121 m; draft 8.9 m.

Type: Ship. MMSI: 538090386.

Date/timePositionNaut miles runAvg speedWind from/ knotsBaromVisibWave heightAir tempDewpointWater temp
2016-Jun-28 10:33N 29°48' W 090°00'8 8.0
2016-Jun-28 09:33N 29°55' W 089°57'10 9.7
2016-Jun-28 08:33N 29°56' W 090°08'  
2016-Jun-25 20:07N 29°58' W 090°18'2 2.6
2016-Jun-25 19:29N 29°58' W 090°16'0 0.0
2016-Jun-25 18:29N 29°58' W 090°16'0 0.0
2016-Jun-25 17:29N 29°58' W 090°16'0 0.0
2016-Jun-25 16:29N 29°58' W 090°16'0 0.0
2016-Jun-25 15:29N 29°58' W 090°16'0 0.0
2016-Jun-25 14:29N 29°58' W 090°16'0 0.0
2016-Jun-25 13:29N 29°58' W 090°16'0 0.0
2016-Jun-25 12:29N 29°58' W 090°16'0 0.0
2016-Jun-25 11:11N 29°58' W 090°16'0 0.0
2016-Jun-25 01:11N 29°58' W 090°16'0 0.0
2016-Jun-25 00:23N 29°58' W 090°16'0 0.0
2016-Jun-24 23:29N 29°58' W 090°16'0 0.0
2016-Jun-24 18:23N 29°58' W 090°16'0 0.0
2016-Jun-24 17:29N 29°58' W 090°16'0 0.0
2016-Jun-24 16:23N 29°58' W 090°16'0 0.0
2016-Jun-24 14:23N 29°58' W 090°16'0 0.0
2016-Jun-24 12:29N 29°58' W 090°16'0 0.1
2016-Jun-24 11:21N 29°58' W 090°16'1 0.6
2016-Jun-24 10:26N 29°58' W 090°15'6 7.2
2016-Jun-24 09:34N 29°57' W 090°08'7 6.7
2016-Jun-24 08:33N 29°57' W 090°01'5 5.5
2016-Jun-24 07:33N 29°52' W 089°57'9 8.9
2016-Jun-24 06:33N 29°44' W 089°60'  

Dump ship's entire track history